Time,TemperatureF,DewpointF,PressureIn,WindDirection,WindDirectionDegrees,WindSpeedMPH,WindSpeedGustMPH,Humidity,HourlyPrecipIn,Conditions,Clouds,dailyrainin,SoftwareType,DateUTC
2014-03-25 00:01:00,44.5,22.1,30.03,NE,39,0.0,8.0,41,0.00,,,0.00,WUHU216DAVISVP2,2014-03-25 04:01:00,
2014-03-25 00:06:00,44.7,21.7,30.03,NE,38,0.0,8.0,40,0.00,,,0.00,WUHU216DAVISVP2,2014-03-25 04:06:00,
2014-03-25 00:11:00,44.8,22.5,30.03,NE,46,0.0,8.0,41,0.00,,,0.00,WUHU216DAVISVP2,2014-03-25 04:11:00,
2014-03-25 00:16:00,44.7,22.8,30.03,NE,45,0.0,4.0,42,0.00,,,0.00,WUHU216DAVISVP2,2014-03-25 04:16:00,
2014-03-25 00:21:00,44.5,21.0,30.03,NE,46,0.0,4.0,39,0.00,,,0.00,WUHU216DAVISVP2,2014-03-25 04:21:00,
2014-03-25 00:26:00,44.4,21.4,30.03,NE,46,0.0,4.0,40,0.00,,,0.00,WUHU216DAVISVP2,2014-03-25 04:26:00,
2014-03-25 00:31:00,44.2,23.0,30.03,NE,46,1.0,1.0,43,0.00,,,0.00,WUHU216DAVISVP2,2014-03-25 04:31:00,
2014-03-25 00:36:00,44.0,23.3,30.02,NE,46,1.0,3.0,44,0.00,,,0.00,WUHU216DAVISVP2,2014-03-25 04:36:00,
2014-03-25 00:41:00,43.8,22.7,30.02,NE,46,1.0,3.0,43,0.00,,,0.00,WUHU216DAVISVP2,2014-03-25 04:41:00,
2014-03-25 00:46:00,43.7,22.1,30.02,NE,46,1.0,3.0,42,0.00,,,0.00,WUHU216DAVISVP2,2014-03-25 04:46:00,
2014-03-25 00:51:00,43.7,23.6,30.02,NNE,28,0.0,5.0,45,0.00,,,0.00,WUHU216DAVISVP2,2014-03-25 04:51:00,
2014-03-25 00:56:00,43.6,22.4,30.02,NNE,27,0.0,5.0,43,0.00,,,0.00,WUHU216DAVISVP2,2014-03-25 04:56:00,
2014-03-25 01:01:00,43.6,20.7,30.02,NE,39,0.0,5.0,40,0.00,,,0.00,WUHU216DAVISVP2,2014-03-25 05:01:00,
2014-03-25 01:06:00,43.6,21.3,30.02,NE,40,0.0,3.0,41,0.00,,,0.00,WUHU216DAVISVP2,2014-03-25 05:06:00,
2014-03-25 01:11:00,43.5,21.7,30.02,NE,40,0.0,3.0,42,0.00,,,0.00,WUHU216DAVISVP2,2014-03-25 05:11:00,
2014-03-25 01:16:00,43.4,21.8,30.02,NE,40,0.0,3.0,42,0.00,,,0.00,WUHU216DAVISVP2,2014-03-25 05:16:00,
2014-03-25 01:21:00,43.3,22.8,30.02,NE,40,0.0,3.0,44,0.00,,,0.00,WUHU216DAVISVP2,2014-03-25 05:21:00,
2014-03-25 01:26:00,43.2,23.2,30.01,NE,40,0.0,1.0,45,0.00,,,0.00,WUHU216DAVISVP2,2014-03-25 05:26:00,
2014-03-25 01:31:00,43.2,23.7,30.01,NE,40,0.0,1.0,46,0.00,,,0.00,WUHU216DAVISVP2,2014-03-25 05:31:00,
2014-03-25 01:36:00,43.0,24.6,30.01,NE,40,0.0,1.0,48,0.00,,,0.00,WUHU216DAVISVP2,2014-03-25 05:36:00,
2014-03-25 01:41:00,42.8,23.9,30.00,NE,40,0.0,1.0,47,0.00,,,0.00,WUHU216DAVISVP2,2014-03-25 05:41:00,
2014-03-25 01:46:00,42.6,23.7,30.00,NE,40,0.0,1.0,47,0.00,,,0.00,WUHU216DAVISVP2,2014-03-25 05:46:00,
2014-03-25 01:51:00,42.4,24.6,30.00,NE,40,0.0,1.0,49,0.00,,,0.00,WUHU216DAVISVP2,2014-03-25 05:51:00,
2014-03-25 01:56:00,42.2,24.8,30.00,NE,40,0.0,1.0,50,0.00,,,0.00,WUHU216DAVISVP2,2014-03-25 05:56:00,
2014-03-25 02:01:00,41.9,26.0,30.00,NE,40,0.0,0.0,53,0.00,,,0.00,WUHU216DAVISVP2,2014-03-25 06:01:00,
2014-03-25 02:06:00,41.7,25.8,30.01,NE,40,0.0,0.0,53,0.00,,,0.00,WUHU216DAVISVP2,2014-03-25 06:06:00,
2014-03-25 02:11:00,41.5,24.7,30.01,NE,40,0.0,0.0,51,0.00,,,0.00,WUHU216DAVISVP2,2014-03-25 06:11:00,
2014-03-25 02:16:00,41.3,27.2,30.01,NE,40,0.0,0.0,57,0.00,,,0.00,WUHU216DAVISVP2,2014-03-25 06:16:00,
2014-03-25 02:20:00,41.1,25.7,30.01,NE,40,0.0,0.0,54,0.00,,,0.00,WUHU216DAVISVP2,2014-03-25 06:20:00,
2014-03-25 02:25:00,40.9,25.5,30.00,NE,40,0.0,0.0,54,0.00,,,0.00,WUHU216DAVISVP2,2014-03-25 06:25:00,
2014-03-25 02:30:00,40.7,27.1,30.00,NE,40,0.0,0.0,58,0.00,,,0.00,WUHU216DAVISVP2,2014-03-25 06:30:00,
2014-03-25 02:35:00,40.6,26.2,30.01,NE,40,0.0,0.0,56,0.00,,,0.00,WUHU216DAVISVP2,2014-03-25 06:35:00,
2014-03-25 02:40:00,40.6,27.4,30.01,NE,40,0.0,0.0,59,0.00,,,0.00,WUHU216DAVISVP2,2014-03-25 06:40:00,
2014-03-25 02:45:00,40.5,26.5,30.00,NE,40,0.0,0.0,57,0.00,,,0.00,WUHU216DAVISVP2,2014-03-25 06:45:00,
2014-03-25 02:50:00,40.4,27.2,30.00,NE,40,0.0,0.0,59,0.00,,,0.00,WUHU216DAVISVP2,2014-03-25 06:50:00,
2014-03-25 02:55:00,40.3,26.7,29.99,NE,40,0.0,0.0,58,0.00,,,0.00,WUHU216DAVISVP2,2014-03-25 06:55:00,
2014-03-25 03:00:00,40.3,26.7,29.99,NE,40,0.0,0.0,58,0.00,,,0.00,WUHU216DAVISVP2,2014-03-25 07:00:00,
2014-03-25 03:05:00,40.3,29.2,29.99,NE,40,0.0,0.0,64,0.00,,,0.00,WUHU216DAVISVP2,2014-03-25 07:05:00,
2014-03-25 03:10:00,40.2,28.7,29.99,NE,40,0.0,0.0,63,0.00,,,0.00,WUHU216DAVISVP2,2014-03-25 07:10:00,
2014-03-25 03:15:00,40.1,27.7,29.99,NE,40,0.0,0.0,61,0.00,,,0.00,WUHU216DAVISVP2,2014-03-25 07:15:00,
2014-03-25 03:20:00,40.1,27.7,29.99,NE,40,0.0,0.0,61,0.00,,,0.00,WUHU216DAVISVP2,2014-03-25 07:20:00,
2014-03-25 03:25:00,40.0,25.1,29.99,NE,40,0.0,1.0,55,0.00,,,0.00,WUHU216DAVISVP2,2014-03-25 07:25:00,
2014-03-25 03:30:00,40.1,27.4,29.99,NE,40,0.0,1.0,60,0.00,,,0.00,WUHU216DAVISVP2,2014-03-25 07:30:00,
2014-03-25 03:35:00,40.1,27.8,29.98,NE,40,0.0,1.0,61,0.00,,,0.00,WUHU216DAVISVP2,2014-03-25 07:35:00,
2014-03-25 03:40:00,40.2,26.2,29.98,NE,40,0.0,1.0,57,0.00,,,0.00,WUHU216DAVISVP2,2014-03-25 07:40:00,
2014-03-25 03:45:00,40.4,25.9,29.98,NE,40,0.0,2.0,56,0.00,,,0.00,WUHU216DAVISVP2,2014-03-25 07:45:00,
2014-03-25 03:50:00,40.5,23.3,29.98,NE,40,0.0,2.0,50,0.00,,,0.00,WUHU216DAVISVP2,2014-03-25 07:50:00,
2014-03-25 03:55:00,40.9,24.1,29.98,NE,40,0.0,2.0,51,0.00,,,0.00,WUHU216DAVISVP2,2014-03-25 07:55:00,
2014-03-25 04:00:00,41.1,24.3,29.97,ENE,63,0.0,3.0,51,0.00,,,0.00,WUHU216DAVISVP2,2014-03-25 08:00:00,
2014-03-25 04:05:00,41.3,24.0,29.97,ENE,63,2.0,3.0,50,0.00,,,0.00,WUHU216DAVISVP2,2014-03-25 08:05:00,
2014-03-25 04:10:00,41.4,25.1,29.97,ENE,63,0.0,3.0,52,0.00,,,0.00,WUHU216DAVISVP2,2014-03-25 08:10:00,
2014-03-25 04:15:00,41.4,25.1,29.97,ENE,63,0.0,3.0,52,0.00,,,0.00,WUHU216DAVISVP2,2014-03-25 08:15:00,
2014-03-25 04:20:00,41.3,24.0,29.96,ENE,66,0.0,2.0,50,0.00,,,0.00,WUHU216DAVISVP2,2014-03-25 08:20:00,
2014-03-25 04:25:00,41.2,24.9,29.96,ENE,66,0.0,2.0,52,0.00,,,0.00,WUHU216DAVISVP2,2014-03-25 08:25:00,
2014-03-25 04:30:00,41.0,24.7,29.96,ENE,65,0.0,2.0,52,0.00,,,0.00,WUHU216DAVISVP2,2014-03-25 08:30:00,
2014-03-25 04:35:00,40.6,24.8,29.96,ENE,65,0.0,2.0,53,0.00,,,0.00,WUHU216DAVISVP2,2014-03-25 08:35:00,
2014-03-25 04:40:00,40.1,23.9,29.96,ENE,65,0.0,0.0,52,0.00,,,0.00,WUHU216DAVISVP2,2014-03-25 08:40:00,
2014-03-25 04:45:00,39.8,23.6,29.96,ENE,65,0.0,0.0,52,0.00,,,0.00,WUHU216DAVISVP2,2014-03-25 08:45:00,
2014-03-25 04:50:00,39.7,23.0,29.96,ENE,65,0.0,0.0,51,0.00,,,0.00,WUHU216DAVISVP2,2014-03-25 08:50:00,
2014-03-25 04:55:00,39.8,23.6,29.96,ENE,65,0.0,3.0,52,0.00,,,0.00,WUHU216DAVISVP2,2014-03-25 08:55:00,
2014-03-25 05:00:00,39.7,24.0,29.96,ENE,66,0.0,3.0,53,0.00,,,0.00,WUHU216DAVISVP2,2014-03-25 09:00:00,
2014-03-25 05:05:00,39.4,25.0,29.95,ENE,66,0.0,3.0,56,0.00,,,0.00,WUHU216DAVISVP2,2014-03-25 09:05:00,
2014-03-25 05:10:00,39.0,24.2,29.95,ENE,66,0.0,3.0,55,0.00,,,0.00,WUHU216DAVISVP2,2014-03-25 09:10:00,
2014-03-25 05:15:00,38.4,26.2,29.95,ENE,65,0.0,1.0,61,0.00,,,0.00,WUHU216DAVISVP2,2014-03-25 09:15:00,
2014-03-25 05:20:00,37.7,24.7,29.95,ENE,65,0.0,1.0,59,0.00,,,0.00,WUHU216DAVISVP2,2014-03-25 09:20:00,
2014-03-25 05:25:00,37.3,24.7,29.95,ENE,66,0.0,1.0,60,0.00,,,0.00,WUHU216DAVISVP2,2014-03-25 09:25:00,
2014-03-25 05:30:00,36.7,25.7,29.96,ENE,66,0.0,1.0,64,0.00,,,0.00,WUHU216DAVISVP2,2014-03-25 09:30:00,
2014-03-25 05:35:00,36.2,24.5,29.96,ENE,66,0.0,1.0,62,0.00,,,0.00,WUHU216DAVISVP2,2014-03-25 09:35:00,
2014-03-25 05:40:00,35.9,24.9,29.96,ENE,66,0.0,1.0,64,0.00,,,0.00,WUHU216DAVISVP2,2014-03-25 09:40:00,
2014-03-25 05:45:00,35.7,23.6,29.96,ENE,66,0.0,1.0,61,0.00,,,0.00,WUHU216DAVISVP2,2014-03-25 09:45:00,
2014-03-25 05:50:00,35.8,22.9,29.97,ENE,65,0.0,1.0,59,0.00,,,0.00,WUHU216DAVISVP2,2014-03-25 09:50:00,
2014-03-25 05:55:00,36.4,23.1,29.97,ENE,66,0.0,1.0,58,0.00,,,0.00,WUHU216DAVISVP2,2014-03-25 09:55:00,
2014-03-25 06:00:00,37.0,23.2,29.97,ENE,65,0.0,1.0,57,0.00,,,0.00,WUHU216DAVISVP2,2014-03-25 10:00:00,
2014-03-25 06:05:00,37.8,21.3,29.97,SSW,198,0.0,3.0,51,0.00,,,0.00,WUHU216DAVISVP2,2014-03-25 10:05:00,
2014-03-25 06:10:00,38.4,22.7,29.97,SSW,198,0.0,3.0,53,0.00,,,0.00,WUHU216DAVISVP2,2014-03-25 10:10:00,
2014-03-25 06:15:00,38.7,21.6,29.97,SW,226,1.0,4.0,50,0.00,,,0.00,WUHU216DAVISVP2,2014-03-25 10:15:00,
2014-03-25 06:20:00,38.8,21.2,29.97,NE,43,2.0,8.0,49,0.00,,,0.00,WUHU216DAVISVP2,2014-03-25 10:20:00,
2014-03-25 06:25:00,38.9,20.8,29.97,NNE,28,0.0,8.0,48,0.00,,,0.00,WUHU216DAVISVP2,2014-03-25 10:25:00,
2014-03-25 06:30:00,38.8,20.8,29.97,NNE,23,1.0,8.0,48,0.00,,,0.00,WUHU216DAVISVP2,2014-03-25 10:30:00,
2014-03-25 06:35:00,38.6,20.5,29.97,SW,225,0.0,8.0,48,0.00,,,0.00,WUHU216DAVISVP2,2014-03-25 10:35:00,
2014-03-25 06:40:00,38.5,20.4,29.97,SW,223,0.0,5.0,48,0.00,,,0.00,WUHU216DAVISVP2,2014-03-25 10:40:00,
2014-03-25 06:45:00,38.2,20.6,29.97,SW,232,2.0,4.0,49,0.00,,,0.00,WUHU216DAVISVP2,2014-03-25 10:45:00,
2014-03-25 06:50:00,38.0,20.5,29.97,SW,232,0.0,4.0,49,0.00,,,0.00,WUHU216DAVISVP2,2014-03-25 10:50:00,
2014-03-25 06:55:00,37.7,21.6,29.97,SW,232,0.0,4.0,52,0.00,,,0.00,WUHU216DAVISVP2,2014-03-25 10:55:00,
2014-03-25 07:00:00,37.5,20.5,29.97,SW,232,0.0,3.0,50,0.00,,,0.00,WUHU216DAVISVP2,2014-03-25 11:00:00,
2014-03-25 07:05:00,37.3,20.8,29.97,SW,232,0.0,1.0,51,0.00,,,0.00,WUHU216DAVISVP2,2014-03-25 11:05:00,
2014-03-25 07:10:00,37.2,20.7,29.98,SW,236,0.0,2.0,51,0.00,,,0.00,WUHU216DAVISVP2,2014-03-25 11:10:00,
2014-03-25 07:15:00,37.0,21.0,29.98,SW,227,0.0,5.0,52,0.00,,,0.00,WUHU216DAVISVP2,2014-03-25 11:15:00,
2014-03-25 07:20:00,37.1,21.5,29.99,SW,228,1.0,5.0,53,0.00,,,0.00,WUHU216DAVISVP2,2014-03-25 11:20:00,
2014-03-25 07:25:00,37.3,20.3,29.99,West,264,0.0,5.0,50,0.00,,,0.00,WUHU216DAVISVP2,2014-03-25 11:25:00,
2014-03-25 07:30:00,37.3,20.3,29.99,NE,56,1.0,5.0,50,0.00,,,0.00,WUHU216DAVISVP2,2014-03-25 11:30:00,
2014-03-25 07:35:00,37.2,20.7,29.99,WSW,244,0.0,4.0,51,0.00,,,0.00,WUHU216DAVISVP2,2014-03-25 11:35:00,
2014-03-25 07:40:00,37.1,20.6,29.99,WSW,244,0.0,3.0,51,0.00,,,0.00,WUHU216DAVISVP2,2014-03-25 11:40:00,
2014-03-25 07:45:00,36.9,20.9,29.99,WSW,244,0.0,3.0,52,0.00,,,0.00,WUHU216DAVISVP2,2014-03-25 11:45:00,
2014-03-25 07:50:00,36.7,20.3,29.99,WSW,244,0.0,3.0,51,0.00,,,0.00,WUHU216DAVISVP2,2014-03-25 11:50:00,
2014-03-25 07:55:00,36.7,20.7,29.99,WSW,244,0.0,1.0,52,0.00,,,0.00,WUHU216DAVISVP2,2014-03-25 11:55:00,
2014-03-25 08:00:00,36.8,21.2,29.99,WSW,244,0.0,1.0,53,0.00,,,0.00,WUHU216DAVISVP2,2014-03-25 12:00:00,
2014-03-25 08:05:00,36.7,21.6,29.99,WSW,245,0.0,2.0,54,0.00,,,0.00,WUHU216DAVISVP2,2014-03-25 12:05:00,
2014-03-25 08:10:00,36.8,21.7,29.99,WSW,245,0.0,2.0,54,0.00,,,0.00,WUHU216DAVISVP2,2014-03-25 12:10:00,
2014-03-25 08:15:00,37.1,22.9,30.00,WSW,245,0.0,2.0,56,0.00,,,0.00,WUHU216DAVISVP2,2014-03-25 12:15:00,
2014-03-25 08:20:00,37.4,23.1,30.00,WSW,252,1.0,3.0,56,0.00,,,0.00,WUHU216DAVISVP2,2014-03-25 12:20:00,
2014-03-25 08:25:00,37.8,23.5,30.00,NW,306,2.0,6.0,56,0.00,,,0.00,WUHU216DAVISVP2,2014-03-25 12:25:00,
2014-03-25 08:30:00,38.1,22.9,30.00,WNW,289,3.0,6.0,54,0.00,,,0.00,WUHU216DAVISVP2,2014-03-25 12:30:00,
2014-03-25 08:35:00,38.4,23.6,30.00,NE,34,2.0,6.0,55,0.00,,,0.00,WUHU216DAVISVP2,2014-03-25 12:35:00,
2014-03-25 08:40:00,38.8,24.5,30.00,West,280,0.0,6.0,56,0.00,,,0.00,WUHU216DAVISVP2,2014-03-25 12:40:00,
2014-03-25 08:45:00,39.0,24.7,30.00,West,279,2.0,6.0,56,0.00,,,0.00,WUHU216DAVISVP2,2014-03-25 12:45:00,
2014-03-25 08:50:00,39.3,24.5,30.01,West,261,4.0,4.0,55,0.00,,,0.00,WUHU216DAVISVP2,2014-03-25 12:50:00,
2014-03-25 08:55:00,39.5,24.2,30.00,WSW,258,2.0,4.0,54,0.00,,,0.00,WUHU216DAVISVP2,2014-03-25 12:55:00,
2014-03-25 09:00:00,39.8,25.0,30.01,SW,233,0.0,4.0,55,0.00,,,0.00,WUHU216DAVISVP2,2014-03-25 13:00:00,
2014-03-25 09:05:00,40.1,24.8,30.02,North,360,1.0,4.0,54,0.00,,,0.00,WUHU216DAVISVP2,2014-03-25 13:05:00,
2014-03-25 09:10:00,40.4,25.1,30.02,West,279,2.0,9.0,54,0.00,,,0.00,WUHU216DAVISVP2,2014-03-25 13:10:00,
2014-03-25 09:15:00,40.4,25.1,30.02,South,175,1.0,9.0,54,0.00,,,0.00,WUHU216DAVISVP2,2014-03-25 13:15:00,
2014-03-25 09:20:00,40.5,24.7,30.02,West,281,5.0,9.0,53,0.00,,,0.00,WUHU216DAVISVP2,2014-03-25 13:20:00,
2014-03-25 09:25:00,40.6,25.3,30.02,SW,229,0.0,9.0,54,0.00,,,0.00,WUHU216DAVISVP2,2014-03-25 13:25:00,
2014-03-25 09:30:00,41.1,25.3,30.02,NNE,28,3.0,7.0,53,0.00,,,0.00,WUHU216DAVISVP2,2014-03-25 13:30:00,
2014-03-25 09:35:00,41.7,25.3,30.02,West,269,0.0,6.0,52,0.00,,,0.00,WUHU216DAVISVP2,2014-03-25 13:35:00,
2014-03-25 09:40:00,42.0,25.6,30.02,WNW,299,1.0,3.0,52,0.00,,,0.00,WUHU216DAVISVP2,2014-03-25 13:40:00,
2014-03-25 09:45:00,41.8,24.5,30.02,WSW,246,0.0,3.0,50,0.00,,,0.00,WUHU216DAVISVP2,2014-03-25 13:45:00,
2014-03-25 09:50:00,41.6,25.3,30.02,NW,315,0.0,3.0,52,0.00,,,0.00,WUHU216DAVISVP2,2014-03-25 13:50:00,
2014-03-25 09:55:00,41.6,25.3,30.02,NW,315,1.0,3.0,52,0.00,,,0.00,WUHU216DAVISVP2,2014-03-25 13:55:00,
2014-03-25 10:00:00,41.8,25.4,30.02,ENE,66,0.0,3.0,52,0.00,,,0.00,WUHU216DAVISVP2,2014-03-25 14:00:00,
2014-03-25 10:05:00,41.7,25.3,30.02,ENE,66,0.0,3.0,52,0.00,,,0.00,WUHU216DAVISVP2,2014-03-25 14:05:00,
2014-03-25 10:10:00,41.7,25.3,30.02,West,277,1.0,4.0,52,0.00,,,0.00,WUHU216DAVISVP2,2014-03-25 14:10:00,
2014-03-25 10:15:00,41.9,26.0,30.02,SW,217,1.0,4.0,53,0.00,,,0.00,WUHU216DAVISVP2,2014-03-25 14:15:00,
2014-03-25 10:20:00,41.9,26.0,30.02,West,269,1.0,4.0,53,0.00,,,0.00,WUHU216DAVISVP2,2014-03-25 14:20:00,
2014-03-25 10:25:00,41.8,27.2,30.02,West,270,0.0,4.0,56,0.00,,,0.00,WUHU216DAVISVP2,2014-03-25 14:25:00,
2014-03-25 10:30:00,41.9,26.5,30.02,West,270,0.0,4.0,54,0.00,,,0.00,WUHU216DAVISVP2,2014-03-25 14:30:00,
2014-03-25 10:35:00,41.9,27.4,30.02,NNW,348,1.0,5.0,56,0.00,,,0.00,WUHU216DAVISVP2,2014-03-25 14:35:00,
2014-03-25 10:40:00,42.3,28.2,30.02,NW,316,3.0,5.0,57,0.00,,,0.00,WUHU216DAVISVP2,2014-03-25 14:40:00,
2014-03-25 10:45:00,42.7,28.1,30.02,NW,307,0.0,5.0,56,0.00,,,0.00,WUHU216DAVISVP2,2014-03-25 14:45:00,
2014-03-25 10:50:00,44.4,30.6,30.03,WSW,248,4.0,7.0,58,0.00,,,0.00,WUHU216DAVISVP2,2014-03-25 14:50:00,
2014-03-25 10:55:00,45.1,30.8,30.03,SSW,212,0.0,7.0,57,0.00,,,0.00,WUHU216DAVISVP2,2014-03-25 14:55:00,
2014-03-25 11:00:00,45.5,30.7,30.03,WSW,246,3.0,7.0,56,0.00,,,0.00,WUHU216DAVISVP2,2014-03-25 15:00:00,
2014-03-25 11:05:00,46.3,31.0,30.04,SW,232,2.0,7.0,55,0.00,,,0.00,WUHU216DAVISVP2,2014-03-25 15:05:00,
2014-03-25 11:10:00,45.9,30.2,30.04,SSW,213,2.0,8.0,54,0.00,,,0.00,WUHU216DAVISVP2,2014-03-25 15:10:00,
2014-03-25 11:15:00,44.5,29.8,30.04,WSW,242,4.0,8.0,56,0.00,,,0.00,WUHU216DAVISVP2,2014-03-25 15:15:00,
2014-03-25 11:20:00,44.0,30.2,30.04,WNW,298,3.0,8.0,58,0.00,,,0.00,WUHU216DAVISVP2,2014-03-25 15:20:00,
2014-03-25 11:25:00,43.5,29.8,30.04,West,273,2.0,8.0,58,0.00,,,0.00,WUHU216DAVISVP2,2014-03-25 15:25:00,
2014-03-25 11:30:00,43.9,29.2,30.05,WSW,250,2.0,8.0,56,0.00,,,0.00,WUHU216DAVISVP2,2014-03-25 15:30:00,
2014-03-25 11:35:00,43.1,28.9,30.05,WSW,250,5.0,12.0,57,0.00,,,0.00,WUHU216DAVISVP2,2014-03-25 15:35:00,
2014-03-25 11:40:00,42.2,28.5,30.05,West,275,3.0,12.0,58,0.00,,,0.00,WUHU216DAVISVP2,2014-03-25 15:40:00,
2014-03-25 11:45:00,41.7,28.9,30.05,WSW,248,3.0,12.0,60,0.00,,,0.00,WUHU216DAVISVP2,2014-03-25 15:45:00,
2014-03-25 11:50:00,41.3,28.5,30.06,WSW,248,5.0,12.0,60,0.00,,,0.00,WUHU216DAVISVP2,2014-03-25 15:50:00,
2014-03-25 11:55:00,41.0,29.0,30.06,West,260,2.0,8.0,62,0.00,,,0.00,WUHU216DAVISVP2,2014-03-25 15:55:00,
2014-03-25 12:00:00,40.9,29.0,30.06,West,261,2.0,8.0,62,0.00,,,0.00,WUHU216DAVISVP2,2014-03-25 16:00:00,
2014-03-25 12:05:00,41.1,28.7,30.06,West,272,5.0,8.0,61,0.00,,,0.00,WUHU216DAVISVP2,2014-03-25 16:05:00,
2014-03-25 12:10:00,41.5,29.1,30.06,WSW,249,0.0,9.0,61,0.00,,,0.00,WUHU216DAVISVP2,2014-03-25 16:10:00,
2014-03-25 12:15:00,41.5,29.1,30.06,West,276,1.0,9.0,61,0.00,,,0.00,WUHU216DAVISVP2,2014-03-25 16:15:00,
2014-03-25 12:20:00,41.5,29.1,30.06,NW,316,2.0,9.0,61,0.00,,,0.00,WUHU216DAVISVP2,2014-03-25 16:20:00,
2014-03-25 12:25:00,41.4,29.3,30.06,NW,304,1.0,9.0,62,0.00,,,0.00,WUHU216DAVISVP2,2014-03-25 16:25:00,
2014-03-25 12:30:00,41.2,28.4,30.06,WNW,282,5.0,7.0,60,0.00,,,0.00,WUHU216DAVISVP2,2014-03-25 16:30:00,
2014-03-25 12:35:00,41.2,29.2,30.06,WSW,257,2.0,8.0,62,0.00,,,0.00,WUHU216DAVISVP2,2014-03-25 16:35:00,
2014-03-25 12:40:00,40.9,28.6,30.06,West,268,2.0,9.0,61,0.00,,,0.00,WUHU216DAVISVP2,2014-03-25 16:40:00,
2014-03-25 12:45:00,40.3,28.8,30.06,WNW,289,0.0,9.0,63,0.00,,,0.00,WUHU216DAVISVP2,2014-03-25 16:45:00,
2014-03-25 12:50:00,40.4,28.5,30.06,WSW,255,4.0,9.0,62,0.00,,,0.00,WUHU216DAVISVP2,2014-03-25 16:50:00,
2014-03-25 12:55:00,40.7,28.4,30.06,West,274,0.0,9.0,61,0.00,,,0.00,WUHU216DAVISVP2,2014-03-25 16:55:00,
2014-03-25 13:00:00,40.6,27.8,30.06,NW,317,2.0,7.0,60,0.00,,,0.00,WUHU216DAVISVP2,2014-03-25 17:00:00,
2014-03-25 13:05:00,40.7,27.9,30.06,NW,322,1.0,7.0,60,0.00,,,0.00,WUHU216DAVISVP2,2014-03-25 17:05:00,
2014-03-25 13:10:00,40.5,27.8,30.06,WNW,299,3.0,8.0,60,0.00,,,0.00,WUHU216DAVISVP2,2014-03-25 17:10:00,
2014-03-25 13:15:00,40.2,27.9,30.07,WNW,302,2.0,8.0,61,0.00,,,0.00,WUHU216DAVISVP2,2014-03-25 17:15:00,
2014-03-25 13:20:00,40.0,26.8,30.07,SW,233,2.0,8.0,59,0.00,,,0.00,WUHU216DAVISVP2,2014-03-25 17:20:00,
2014-03-25 13:25:00,40.2,27.1,30.07,NNW,330,0.0,8.0,59,0.00,,,0.00,WUHU216DAVISVP2,2014-03-25 17:25:00,
2014-03-25 13:30:00,40.8,27.6,30.07,East,85,1.0,7.0,59,0.00,,,0.00,WUHU216DAVISVP2,2014-03-25 17:30:00,
2014-03-25 13:35:00,40.9,27.7,30.07,NNE,19,2.0,7.0,59,0.00,,,0.00,WUHU216DAVISVP2,2014-03-25 17:35:00,
2014-03-25 13:40:00,40.7,27.5,30.07,West,269,3.0,8.0,59,0.00,,,0.00,WUHU216DAVISVP2,2014-03-25 17:40:00,
2014-03-25 13:45:00,40.1,27.7,30.07,West,273,3.0,8.0,61,0.00,,,0.00,WUHU216DAVISVP2,2014-03-25 17:45:00,
2014-03-25 13:50:00,41.0,28.6,30.07,NE,34,2.0,8.0,61,0.00,,,0.00,WUHU216DAVISVP2,2014-03-25 17:50:00,
2014-03-25 13:55:00,41.2,27.6,30.07,WSW,243,2.0,8.0,58,0.00,,,0.00,WUHU216DAVISVP2,2014-03-25 17:55:00,
2014-03-25 14:00:00,40.4,26.4,30.08,North,5,4.0,11.0,57,0.00,,,0.00,WUHU216DAVISVP2,2014-03-25 18:00:00,
2014-03-25 14:05:00,40.2,27.5,30.08,WNW,294,5.0,11.0,60,0.00,,,0.00,WUHU216DAVISVP2,2014-03-25 18:05:00,
2014-03-25 14:10:00,41.0,27.8,30.08,WNW,292,4.0,11.0,59,0.00,,,0.00,WUHU216DAVISVP2,2014-03-25 18:10:00,
2014-03-25 14:15:00,42.0,27.0,30.08,WNW,288,3.0,11.0,55,0.00,,,0.00,WUHU216DAVISVP2,2014-03-25 18:15:00,
2014-03-25 14:20:00,42.0,27.9,30.08,West,275,6.0,11.0,57,0.00,,,0.00,WUHU216DAVISVP2,2014-03-25 18:20:00,
2014-03-25 14:25:00,42.7,29.4,30.08,West,261,0.0,8.0,59,0.00,,,0.00,WUHU216DAVISVP2,2014-03-25 18:25:00,
2014-03-25 14:30:00,43.7,29.1,30.08,WNW,296,4.0,8.0,56,0.00,,,0.00,WUHU216DAVISVP2,2014-03-25 18:30:00,
2014-03-25 14:35:00,43.6,28.1,30.08,West,268,1.0,8.0,54,0.00,,,0.00,WUHU216DAVISVP2,2014-03-25 18:35:00,
2014-03-25 14:40:00,43.4,28.8,30.08,NW,304,3.0,8.0,56,0.00,,,0.00,WUHU216DAVISVP2,2014-03-25 18:40:00,
2014-03-25 14:45:00,43.2,27.7,30.09,West,269,3.0,9.0,54,0.00,,,0.00,WUHU216DAVISVP2,2014-03-25 18:45:00,
2014-03-25 14:50:00,42.6,28.0,30.09,NNW,330,1.0,9.0,56,0.00,,,0.00,WUHU216DAVISVP2,2014-03-25 18:50:00,
2014-03-25 14:55:00,41.8,28.2,30.09,West,267,0.0,9.0,58,0.00,,,0.00,WUHU216DAVISVP2,2014-03-25 18:55:00,
2014-03-25 15:00:00,41.7,27.6,30.09,WSW,239,2.0,9.0,57,0.00,,,0.00,WUHU216DAVISVP2,2014-03-25 19:00:00,
2014-03-25 15:05:00,40.9,26.8,30.08,WSW,248,2.0,8.0,57,0.00,,,0.00,WUHU216DAVISVP2,2014-03-25 19:05:00,
2014-03-25 15:10:00,41.6,28.8,30.08,North,355,2.0,8.0,60,0.00,,,0.00,WUHU216DAVISVP2,2014-03-25 19:10:00,
2014-03-25 15:15:00,42.6,27.1,30.08,West,277,4.0,8.0,54,0.00,,,0.00,WUHU216DAVISVP2,2014-03-25 19:15:00,
2014-03-25 15:20:00,42.6,26.6,30.08,NNE,15,2.0,8.0,53,0.00,,,0.00,WUHU216DAVISVP2,2014-03-25 19:20:00,
2014-03-25 15:25:00,43.1,28.0,30.08,ESE,102,1.0,8.0,55,0.00,,,0.00,WUHU216DAVISVP2,2014-03-25 19:25:00,
2014-03-25 15:30:00,43.4,27.4,30.08,NNW,344,1.0,7.0,53,0.00,,,0.00,WUHU216DAVISVP2,2014-03-25 19:30:00,
2014-03-25 15:35:00,42.8,27.3,30.08,NW,312,1.0,7.0,54,0.00,,,0.00,WUHU216DAVISVP2,2014-03-25 19:35:00,
2014-03-25 15:40:00,42.0,27.5,30.08,WSW,244,0.0,6.0,56,0.00,,,0.00,WUHU216DAVISVP2,2014-03-25 19:40:00,
2014-03-25 15:45:00,41.7,27.2,30.08,SW,229,0.0,6.0,56,0.00,,,0.00,WUHU216DAVISVP2,2014-03-25 19:45:00,
2014-03-25 15:50:00,41.2,26.7,30.08,NW,306,2.0,5.0,56,0.00,,,0.00,WUHU216DAVISVP2,2014-03-25 19:50:00,
2014-03-25 15:55:00,40.6,25.7,30.07,West,263,2.0,5.0,55,0.00,,,0.00,WUHU216DAVISVP2,2014-03-25 19:55:00,
2014-03-25 16:00:00,40.9,26.8,30.07,WSW,252,0.0,6.0,57,0.00,,,0.00,WUHU216DAVISVP2,2014-03-25 20:00:00,
2014-03-25 16:05:00,42.3,27.3,30.07,NW,306,2.0,6.0,55,0.00,,,0.00,WUHU216DAVISVP2,2014-03-25 20:05:00,
2014-03-25 16:10:00,42.8,25.9,30.08,WSW,254,2.0,7.0,51,0.00,,,0.00,WUHU216DAVISVP2,2014-03-25 20:10:00,
2014-03-25 16:15:00,42.2,25.3,30.08,SW,234,3.0,8.0,51,0.00,,,0.00,WUHU216DAVISVP2,2014-03-25 20:15:00,
2014-03-25 16:20:00,41.9,26.9,30.08,WSW,242,1.0,8.0,55,0.00,,,0.00,WUHU216DAVISVP2,2014-03-25 20:20:00,
2014-03-25 16:25:00,43.3,28.2,30.08,SW,223,3.0,10.0,55,0.00,,,0.00,WUHU216DAVISVP2,2014-03-25 20:25:00,
2014-03-25 16:30:00,43.9,27.9,30.08,WSW,252,4.0,10.0,53,0.00,,,0.00,WUHU216DAVISVP2,2014-03-25 20:30:00,
2014-03-25 16:35:00,44.0,28.0,30.08,West,270,1.0,10.0,53,0.00,,,0.00,WUHU216DAVISVP2,2014-03-25 20:35:00,
2014-03-25 16:40:00,44.2,26.7,30.08,WNW,286,3.0,10.0,50,0.00,,,0.00,WUHU216DAVISVP2,2014-03-25 20:40:00,
2014-03-25 16:45:00,43.0,25.6,30.09,NW,314,5.0,8.0,50,0.00,,,0.00,WUHU216DAVISVP2,2014-03-25 20:45:00,
2014-03-25 16:50:00,40.5,30.5,30.11,WSW,257,1.0,17.0,67,0.00,,,0.00,WUHU216DAVISVP2,2014-03-25 20:50:00,
2014-03-25 16:55:00,37.8,31.2,30.12,North,9,2.0,17.0,77,0.00,,,0.00,WUHU216DAVISVP2,2014-03-25 20:55:00,
2014-03-25 17:00:00,36.6,31.6,30.12,West,279,2.0,17.0,82,0.00,,,0.00,WUHU216DAVISVP2,2014-03-25 21:00:00,
2014-03-25 17:05:00,36.6,32.8,30.11,West,279,0.0,17.0,86,0.00,,,0.00,WUHU216DAVISVP2,2014-03-25 21:05:00,
2014-03-25 17:10:00,37.4,34.4,30.11,West,279,0.0,6.0,89,0.00,,,0.00,WUHU216DAVISVP2,2014-03-25 21:10:00,
2014-03-25 17:15:00,37.9,33.8,30.11,West,262,2.0,4.0,85,0.00,,,0.00,WUHU216DAVISVP2,2014-03-25 21:15:00,
2014-03-25 17:20:00,38.4,33.4,30.10,NW,304,2.0,6.0,82,0.00,,,0.00,WUHU216DAVISVP2,2014-03-25 21:20:00,
2014-03-25 17:25:00,38.7,32.8,30.10,WNW,285,5.0,6.0,79,0.00,,,0.00,WUHU216DAVISVP2,2014-03-25 21:25:00,
2014-03-25 17:30:00,39.1,32.5,30.10,WSW,249,4.0,6.0,77,0.00,,,0.00,WUHU216DAVISVP2,2014-03-25 21:30:00,
2014-03-25 17:35:00,39.3,31.8,30.10,West,272,4.0,6.0,74,0.00,,,0.00,WUHU216DAVISVP2,2014-03-25 21:35:00,
2014-03-25 17:40:00,39.8,30.2,30.10,West,271,0.0,7.0,68,0.00,,,0.00,WUHU216DAVISVP2,2014-03-25 21:40:00,
2014-03-25 17:45:00,40.1,30.1,30.10,NW,324,1.0,7.0,67,0.00,,,0.00,WUHU216DAVISVP2,2014-03-25 21:45:00,
2014-03-25 17:50:00,39.7,28.9,30.11,SSW,208,2.0,8.0,65,0.00,,,0.00,WUHU216DAVISVP2,2014-03-25 21:50:00,
2014-03-25 17:55:00,39.1,24.7,30.10,WNW,297,1.0,8.0,56,0.00,,,0.00,WUHU216DAVISVP2,2014-03-25 21:55:00,
2014-03-25 18:00:00,39.4,24.1,30.10,West,270,5.0,8.0,54,0.00,,,0.00,WUHU216DAVISVP2,2014-03-25 22:00:00,
2014-03-25 18:05:00,40.0,25.6,30.10,West,271,3.0,8.0,56,0.00,,,0.00,WUHU216DAVISVP2,2014-03-25 22:05:00,
2014-03-25 18:10:00,40.6,25.7,30.10,WNW,297,3.0,8.0,55,0.00,,,0.00,WUHU216DAVISVP2,2014-03-25 22:10:00,
2014-03-25 18:15:00,41.0,26.1,30.11,West,281,2.0,8.0,55,0.00,,,0.00,WUHU216DAVISVP2,2014-03-25 22:15:00,
2014-03-25 18:20:00,40.9,25.5,30.11,West,275,2.0,7.0,54,0.00,,,0.00,WUHU216DAVISVP2,2014-03-25 22:20:00,
2014-03-25 18:25:00,40.8,24.5,30.11,West,276,3.0,7.0,52,0.00,,,0.00,WUHU216DAVISVP2,2014-03-25 22:25:00,
2014-03-25 18:30:00,40.6,22.4,30.11,WNW,284,1.0,9.0,48,0.00,,,0.00,WUHU216DAVISVP2,2014-03-25 22:30:00,
2014-03-25 18:35:00,40.9,19.4,30.12,WSW,248,5.0,9.0,42,0.00,,,0.00,WUHU216DAVISVP2,2014-03-25 22:35:00,
2014-03-25 18:40:00,40.6,19.7,30.12,West,272,2.0,9.0,43,0.00,,,0.00,WUHU216DAVISVP2,2014-03-25 22:40:00,
2014-03-25 18:45:00,40.4,19.5,30.12,NNE,19,3.0,9.0,43,0.00,,,0.00,WUHU216DAVISVP2,2014-03-25 22:45:00,
2014-03-25 18:50:00,39.8,17.8,30.12,NNE,16,1.0,9.0,41,0.00,,,0.00,WUHU216DAVISVP2,2014-03-25 22:50:00,
2014-03-25 18:55:00,39.4,18.6,30.13,NE,36,4.0,8.0,43,0.00,,,0.00,WUHU216DAVISVP2,2014-03-25 22:55:00,
2014-03-25 19:00:00,39.2,20.0,30.13,NW,326,3.0,8.0,46,0.00,,,0.00,WUHU216DAVISVP2,2014-03-25 23:00:00,
2014-03-25 19:05:00,39.0,18.2,30.13,North,355,0.0,8.0,43,0.00,,,0.00,WUHU216DAVISVP2,2014-03-25 23:05:00,
2014-03-25 19:10:00,38.8,17.5,30.13,NNE,28,1.0,5.0,42,0.00,,,0.00,WUHU216DAVISVP2,2014-03-25 23:10:00,
2014-03-25 19:15:00,38.6,17.9,30.14,WSW,250,5.0,5.0,43,0.00,,,0.00,WUHU216DAVISVP2,2014-03-25 23:15:00,
2014-03-25 19:20:00,38.5,17.8,30.14,SSW,209,2.0,6.0,43,0.00,,,0.00,WUHU216DAVISVP2,2014-03-25 23:20:00,
2014-03-25 19:25:00,38.4,18.4,30.14,WSW,241,0.0,6.0,44,0.00,,,0.00,WUHU216DAVISVP2,2014-03-25 23:25:00,
2014-03-25 19:30:00,38.3,18.1,30.14,WNW,297,2.0,7.0,44,0.00,,,0.00,WUHU216DAVISVP2,2014-03-25 23:30:00,
2014-03-25 19:35:00,38.1,18.1,30.14,NNW,331,1.0,9.0,44,0.00,,,0.00,WUHU216DAVISVP2,2014-03-25 23:35:00,
2014-03-25 19:40:00,37.8,17.7,30.14,North,5,7.0,9.0,44,0.00,,,0.00,WUHU216DAVISVP2,2014-03-25 23:40:00,
2014-03-25 19:45:00,37.6,18.0,30.14,NE,46,2.0,9.0,45,0.00,,,0.00,WUHU216DAVISVP2,2014-03-25 23:45:00,
2014-03-25 19:50:00,37.5,16.9,30.15,WNW,290,1.0,9.0,43,0.00,,,0.00,WUHU216DAVISVP2,2014-03-25 23:50:00,
2014-03-25 19:55:00,37.4,16.2,30.15,West,274,0.0,9.0,42,0.00,,,0.00,WUHU216DAVISVP2,2014-03-25 23:55:00,
2014-03-25 20:00:00,37.3,16.7,30.15,West,263,2.0,9.0,43,0.00,,,0.00,WUHU216DAVISVP2,2014-03-26 00:00:00,
2014-03-25 20:05:00,37.2,16.6,30.15,WNW,286,2.0,9.0,43,0.00,,,0.00,WUHU216DAVISVP2,2014-03-26 00:05:00,
2014-03-25 20:10:00,37.1,15.4,30.15,WNW,290,1.0,9.0,41,0.00,,,0.00,WUHU216DAVISVP2,2014-03-26 00:10:00,
2014-03-25 20:15:00,37.1,15.4,30.15,NW,324,1.0,9.0,41,0.00,,,0.00,WUHU216DAVISVP2,2014-03-26 00:15:00,
2014-03-25 20:20:00,37.0,15.8,30.16,WNW,297,2.0,7.0,42,0.00,,,0.00,WUHU216DAVISVP2,2014-03-26 00:20:00,
2014-03-25 20:25:00,37.0,14.7,30.16,SW,236,0.0,9.0,40,0.00,,,0.00,WUHU216DAVISVP2,2014-03-26 00:25:00,
2014-03-25 20:30:00,36.9,15.4,30.16,West,270,1.0,9.0,41,0.00,,,0.00,WUHU216DAVISVP2,2014-03-26 00:30:00,
2014-03-25 20:35:00,36.9,15.4,30.16,WSW,245,1.0,9.0,41,0.00,,,0.00,WUHU216DAVISVP2,2014-03-26 00:35:00,
2014-03-25 20:40:00,36.8,15.1,30.16,WSW,244,1.0,9.0,41,0.00,,,0.00,WUHU216DAVISVP2,2014-03-26 00:40:00,
2014-03-25 20:45:00,36.7,15.6,30.17,West,263,0.0,9.0,42,0.00,,,0.00,WUHU216DAVISVP2,2014-03-26 00:45:00,
2014-03-25 20:50:00,36.4,14.7,30.17,West,279,2.0,9.0,41,0.00,,,0.00,WUHU216DAVISVP2,2014-03-26 00:50:00,
2014-03-25 20:55:00,36.3,14.6,30.17,West,280,0.0,5.0,41,0.00,,,0.00,WUHU216DAVISVP2,2014-03-26 00:55:00,
2014-03-25 21:00:00,36.1,15.2,30.18,NW,304,0.0,4.0,42,0.00,,,0.00,WUHU216DAVISVP2,2014-03-26 01:00:00,
2014-03-25 21:05:00,35.9,15.5,30.18,SSW,194,0.0,4.0,43,0.00,,,0.00,WUHU216DAVISVP2,2014-03-26 01:05:00,
2014-03-25 21:10:00,35.8,14.2,30.18,WSW,246,0.0,5.0,41,0.00,,,0.00,WUHU216DAVISVP2,2014-03-26 01:10:00,
2014-03-25 21:15:00,35.6,14.0,30.19,NW,307,0.0,5.0,41,0.00,,,0.00,WUHU216DAVISVP2,2014-03-26 01:15:00,
2014-03-25 21:20:00,35.5,14.5,30.19,NW,310,0.0,5.0,42,0.00,,,0.00,WUHU216DAVISVP2,2014-03-26 01:20:00,
2014-03-25 21:25:00,35.5,14.5,30.19,WNW,286,1.0,6.0,42,0.00,,,0.00,WUHU216DAVISVP2,2014-03-26 01:25:00,
2014-03-25 21:30:00,35.4,13.8,30.19,SW,232,0.0,6.0,41,0.00,,,0.00,WUHU216DAVISVP2,2014-03-26 01:30:00,
2014-03-25 21:35:00,35.3,14.3,30.20,NNE,15,1.0,6.0,42,0.00,,,0.00,WUHU216DAVISVP2,2014-03-26 01:35:00,
2014-03-25 21:40:00,35.2,15.3,30.20,SW,223,3.0,6.0,44,0.00,,,0.00,WUHU216DAVISVP2,2014-03-26 01:40:00,
2014-03-25 21:45:00,35.0,14.0,30.20,WNW,286,0.0,4.0,42,0.00,,,0.00,WUHU216DAVISVP2,2014-03-26 01:45:00,
2014-03-25 21:50:00,35.0,14.0,30.20,WSW,244,0.0,4.0,42,0.00,,,0.00,WUHU216DAVISVP2,2014-03-26 01:50:00,
2014-03-25 21:55:00,34.8,13.9,30.21,ENE,65,4.0,4.0,42,0.00,,,0.00,WUHU216DAVISVP2,2014-03-26 01:55:00,
2014-03-25 22:00:00,34.8,13.3,30.21,SW,225,0.0,5.0,41,0.00,,,0.00,WUHU216DAVISVP2,2014-03-26 02:00:00,
2014-03-25 22:05:00,34.8,13.9,30.21,West,277,0.0,6.0,42,0.00,,,0.00,WUHU216DAVISVP2,2014-03-26 02:05:00,
2014-03-25 22:10:00,34.7,13.8,30.21,NNW,332,0.0,6.0,42,0.00,,,0.00,WUHU216DAVISVP2,2014-03-26 02:10:00,
2014-03-25 22:15:00,34.7,14.3,30.22,NNW,332,0.0,6.0,43,0.00,,,0.00,WUHU216DAVISVP2,2014-03-26 02:15:00,
2014-03-25 22:20:00,34.5,14.1,30.22,NNW,332,0.0,6.0,43,0.00,,,0.00,WUHU216DAVISVP2,2014-03-26 02:20:00,
2014-03-25 22:25:00,34.3,15.0,30.22,ESE,111,0.0,4.0,45,0.00,,,0.00,WUHU216DAVISVP2,2014-03-26 02:25:00,
2014-03-25 22:30:00,34.2,14.4,30.22,SE,126,0.0,4.0,44,0.00,,,0.00,WUHU216DAVISVP2,2014-03-26 02:30:00,
2014-03-25 22:35:00,34.0,14.3,30.22,NNE,22,0.0,4.0,44,0.00,,,0.00,WUHU216DAVISVP2,2014-03-26 02:35:00,
2014-03-25 22:40:00,33.9,14.1,30.22,WNW,300,1.0,4.0,44,0.00,,,0.00,WUHU216DAVISVP2,2014-03-26 02:40:00,
2014-03-25 22:45:00,33.8,14.0,30.23,WNW,300,0.0,3.0,44,0.00,,,0.00,WUHU216DAVISVP2,2014-03-26 02:45:00,
2014-03-25 22:50:00,33.7,14.6,30.23,WNW,300,0.0,3.0,45,0.00,,,0.00,WUHU216DAVISVP2,2014-03-26 02:50:00,
2014-03-25 22:55:00,33.5,14.9,30.23,WNW,300,0.0,2.0,46,0.00,,,0.00,WUHU216DAVISVP2,2014-03-26 02:55:00,
2014-03-25 23:00:00,33.4,14.2,30.23,WNW,300,0.0,1.0,45,0.00,,,0.00,WUHU216DAVISVP2,2014-03-26 03:00:00,
2014-03-25 23:05:00,33.3,14.6,30.23,WNW,300,0.0,0.0,46,0.00,,,0.00,WUHU216DAVISVP2,2014-03-26 03:05:00,
2014-03-25 23:10:00,33.4,14.7,30.23,WNW,300,0.0,0.0,46,0.00,,,0.00,WUHU216DAVISVP2,2014-03-26 03:10:00,
2014-03-25 23:15:00,33.3,15.2,30.23,WNW,300,0.0,1.0,47,0.00,,,0.00,WUHU216DAVISVP2,2014-03-26 03:15:00,
2014-03-25 23:20:00,33.2,14.5,30.23,WNW,300,0.0,1.0,46,0.00,,,0.00,WUHU216DAVISVP2,2014-03-26 03:20:00,
2014-03-25 23:25:00,33.1,14.4,30.23,WNW,300,0.0,1.0,46,0.00,,,0.00,WUHU216DAVISVP2,2014-03-26 03:25:00,
2014-03-25 23:30:00,33.0,14.4,30.23,WNW,300,0.0,1.0,46,0.00,,,0.00,WUHU216DAVISVP2,2014-03-26 03:30:00,
2014-03-25 23:35:00,33.1,13.4,30.23,WNW,300,0.0,1.0,44,0.00,,,0.00,WUHU216DAVISVP2,2014-03-26 03:35:00,
2014-03-25 23:40:00,33.0,13.8,30.23,WNW,300,0.0,1.0,45,0.00,,,0.00,WUHU216DAVISVP2,2014-03-26 03:40:00,
2014-03-25 23:45:00,33.0,14.3,30.24,WNW,300,1.0,2.0,46,0.00,,,0.00,WUHU216DAVISVP2,2014-03-26 03:45:00,
2014-03-25 23:50:00,33.0,14.8,30.24,WSW,250,0.0,3.0,47,0.00,,,0.00,WUHU216DAVISVP2,2014-03-26 03:50:00,
2014-03-25 23:55:00,33.2,14.0,30.24,WSW,249,1.0,3.0,45,0.00,,,0.00,WUHU216DAVISVP2,2014-03-26 03:55:00,